Time;durP1;ratioP1;P1;durP2;ratioP2;P2;SDS_P1;SDS_P2;PMS_P1;PMS_P2;Temp;Humidity;BMP_temperature;BMP_pressure;BME280_temperature;BME280_humidity;BME280_pressure;Samples;Min_cycle;Max_cycle;Signal;HPM_P1;HPM_P2
2021/10/17 00:00:28;;;;;;;18.13;6.20;;;;;;;;;;5028247;28;20049;-63
2021/10/17 00:02:54;;;;;;;17.40;5.55;;;;;;;;;;5018391;28;20307;-63
2021/10/17 00:05:22;;;;;;;18.02;5.60;;;;;;;;;;5026594;28;20390;-63
2021/10/17 00:07:49;;;;;;;18.13;5.63;;;;;;;;;;5021558;28;20583;-63
2021/10/17 00:10:16;;;;;;;17.30;5.03;;;;;;;;;;5038626;28;20056;-63
2021/10/17 00:12:43;;;;;;;19.30;4.75;;;;;;;;;;5024551;28;20060;-63
2021/10/17 00:15:11;;;;;;;17.73;5.40;;;;;;;;;;5035095;28;20522;-63
2021/10/17 00:17:38;;;;;;;18.75;5.70;;;;;;;;;;5009994;28;20451;-63
2021/10/17 00:20:05;;;;;;;18.10;5.70;;;;;;;;;;5030268;28;20474;-63
2021/10/17 00:22:32;;;;;;;18.48;6.50;;;;;;;;;;5022126;28;20049;-63
2021/10/17 00:24:58;;;;;;;25.60;6.47;;;;;;;;;;5032043;28;20501;-63
2021/10/17 00:27:24;;;;;;;15.77;5.95;;;;;;;;;;5037563;28;20050;-63
2021/10/17 00:29:51;;;;;;;16.08;6.10;;;;;;;;;;5029868;28;20522;-63
2021/10/17 00:32:17;;;;;;;17.75;6.18;;;;;;;;;;5022286;28;20068;-62
2021/10/17 00:34:44;;;;;;;19.38;7.18;;;;;;;;;;5024166;28;20037;-63
2021/10/17 00:37:10;;;;;;;16.45;6.10;;;;;;;;;;5031058;28;20055;-63
2021/10/17 00:39:37;;;;;;;21.17;6.50;;;;;;;;;;5037781;28;20056;-63
2021/10/17 00:42:07;;;;;;;17.48;6.60;;;;;;;;;;5019514;28;20065;-63
2021/10/17 00:44:33;;;;;;;15.75;5.60;;;;;;;;;;5028957;28;20068;-62
2021/10/17 00:46:59;;;;;;;15.35;5.90;;;;;;;;;;5010428;28;20067;-63
2021/10/17 00:49:26;;;;;;;20.77;6.57;;;;;;;;;;5035490;28;20064;-64
2021/10/17 00:51:52;;;;;;;20.27;6.22;;;;;;;;;;5015242;28;20053;-63
2021/10/17 00:54:19;;;;;;;19.20;6.00;;;;;;;;;;5031926;28;20529;-63
2021/10/17 00:56:45;;;;;;;15.68;6.35;;;;;;;;;;5024373;28;20045;-63
2021/10/17 00:59:12;;;;;;;23.17;6.63;;;;;;;;;;5023609;28;20072;-63
2021/10/17 01:01:39;;;;;;;14.43;5.93;;;;;;;;;;5021347;28;20348;-63
2021/10/17 01:04:06;;;;;;;17.83;6.82;;;;;;;;;;5029442;28;20342;-63
2021/10/17 01:06:32;;;;;;;24.38;6.30;;;;;;;;;;5030004;28;20381;-63
2021/10/17 01:08:59;;;;;;;17.20;6.72;;;;;;;;;;5027632;28;20053;-63
2021/10/17 01:11:39;;;;;;;24.27;7.38;;;;;;;;;;5029049;28;20079;-63
2021/10/17 01:14:05;;;;;;;12.73;5.65;;;;;;;;;;5022888;28;20280;-63
2021/10/17 01:16:31;;;;;;;22.52;6.10;;;;;;;;;;5033947;28;20056;-63
2021/10/17 01:18:58;;;;;;;18.77;5.80;;;;;;;;;;5037116;28;20053;-63
2021/10/17 01:21:24;;;;;;;19.83;6.57;;;;;;;;;;5023110;28;20120;-63
2021/10/17 01:23:51;;;;;;;17.58;6.15;;;;;;;;;;5034671;28;20065;-63
2021/10/17 01:26:17;;;;;;;15.13;5.97;;;;;;;;;;5025468;28;20702;-63
2021/10/17 01:28:47;;;;;;;17.17;6.28;;;;;;;;;;5031655;28;20048;-63
2021/10/17 01:31:13;;;;;;;15.98;5.93;;;;;;;;;;5022159;28;20048;-63
2021/10/17 01:33:40;;;;;;;17.60;6.22;;;;;;;;;;5034181;28;20049;-63
2021/10/17 01:36:06;;;;;;;21.17;6.70;;;;;;;;;;5036308;28;20064;-63
2021/10/17 01:38:32;;;;;;;16.70;6.75;;;;;;;;;;5031152;28;20052;-63
2021/10/17 01:40:59;;;;;;;13.65;6.60;;;;;;;;;;5032683;28;20043;-64
2021/10/17 01:43:28;;;;;;;19.80;5.72;;;;;;;;;;5022152;28;20057;-64
2021/10/17 01:45:56;;;;;;;18.13;6.18;;;;;;;;;;5032479;28;20049;-64
2021/10/17 01:48:23;;;;;;;17.70;5.45;;;;;;;;;;5034230;28;20050;-63
2021/10/17 01:50:49;;;;;;;17.02;6.28;;;;;;;;;;5026929;28;20048;-63
2021/10/17 01:53:15;;;;;;;18.88;7.20;;;;;;;;;;5039612;28;20747;-64
2021/10/17 01:55:42;;;;;;;22.00;6.88;;;;;;;;;;5029721;28;20103;-63
2021/10/17 01:58:08;;;;;;;18.77;6.32;;;;;;;;;;5030748;28;20053;-63
2021/10/17 02:00:34;;;;;;;18.75;6.82;;;;;;;;;;5033619;28;20064;-64
2021/10/17 02:03:01;;;;;;;18.38;6.20;;;;;;;;;;5032963;28;20140;-64
2021/10/17 02:05:27;;;;;;;17.83;6.53;;;;;;;;;;5030810;28;20041;-64
2021/10/17 02:07:53;;;;;;;14.80;6.55;;;;;;;;;;5022610;28;20068;-64
2021/10/17 02:10:20;;;;;;;15.68;5.63;;;;;;;;;;5015020;28;20070;-64
2021/10/17 02:12:46;;;;;;;20.20;7.00;;;;;;;;;;5022457;28;20045;-64
2021/10/17 02:15:12;;;;;;;23.48;7.05;;;;;;;;;;5035068;28;20060;-64
2021/10/17 02:17:40;;;;;;;13.38;6.10;;;;;;;;;;5023570;28;20052;-64
2021/10/17 02:20:07;;;;;;;14.70;6.65;;;;;;;;;;5030233;28;20068;-64
2021/10/17 02:22:33;;;;;;;15.40;6.57;;;;;;;;;;5038862;28;20056;-64
2021/10/17 02:25:00;;;;;;;19.85;6.32;;;;;;;;;;5030977;28;20049;-64
2021/10/17 02:27:26;;;;;;;14.65;6.85;;;;;;;;;;5036638;28;20060;-64
2021/10/17 02:29:53;;;;;;;16.52;5.82;;;;;;;;;;5031863;28;20150;-64
2021/10/17 02:32:19;;;;;;;14.98;6.28;;;;;;;;;;5032527;28;20510;-63
2021/10/17 02:34:46;;;;;;;23.27;7.43;;;;;;;;;;5023959;28;20135;-63
2021/10/17 02:37:12;;;;;;;16.17;6.20;;;;;;;;;;5035741;28;20541;-64
2021/10/17 02:39:38;;;;;;;19.13;7.32;;;;;;;;;;5038343;28;20139;-63
2021/10/17 02:42:05;;;;;;;14.48;6.55;;;;;;;;;;5029692;28;20111;-64
2021/10/17 02:44:31;;;;;;;17.98;7.47;;;;;;;;;;5040806;28;20140;-64
2021/10/17 02:46:58;;;;;;;19.08;8.23;;;;;;;;;;5022121;28;20135;-64
2021/10/17 02:49:25;;;;;;;15.65;6.70;;;;;;;;;;5035874;28;20065;-65
2021/10/17 02:51:51;;;;;;;17.30;6.57;;;;;;;;;;4982790;28;1236423;-64
2021/10/17 02:54:18;;;;;;;18.80;7.13;;;;;;;;;;5037211;28;20616;-64
2021/10/17 02:56:44;;;;;;;17.10;7.05;;;;;;;;;;5038682;28;20132;-64
2021/10/17 02:59:11;;;;;;;17.42;6.70;;;;;;;;;;5028749;28;20131;-64
2021/10/17 03:01:37;;;;;;;19.30;7.50;;;;;;;;;;5032408;28;20573;-64
2021/10/17 03:04:03;;;;;;;13.20;7.60;;;;;;;;;;5035035;28;20076;-63
2021/10/17 03:06:30;;;;;;;14.80;6.85;;;;;;;;;;5032789;28;20049;-63
2021/10/17 03:08:56;;;;;;;19.48;7.60;;;;;;;;;;5035179;28;20486;-65
2021/10/17 03:11:23;;;;;;;24.17;8.20;;;;;;;;;;5030822;28;20494;-64
2021/10/17 03:13:49;;;;;;;13.82;7.18;;;;;;;;;;5040735;28;20059;-64
2021/10/17 03:16:15;;;;;;;17.10;7.53;;;;;;;;;;5021374;28;20826;-64
2021/10/17 03:18:42;;;;;;;22.15;7.72;;;;;;;;;;5040880;28;20048;-64
2021/10/17 03:21:08;;;;;;;22.77;7.93;;;;;;;;;;5025758;28;20064;-64
2021/10/17 03:23:35;;;;;;;17.60;7.35;;;;;;;;;;5041923;28;20131;-64
2021/10/17 03:26:01;;;;;;;18.15;7.28;;;;;;;;;;5033202;28;20124;-65
2021/10/17 03:28:28;;;;;;;21.80;8.13;;;;;;;;;;5037039;28;20040;-64
2021/10/17 03:30:55;;;;;;;15.75;6.65;;;;;;;;;;5039339;28;20144;-64
2021/10/17 03:33:22;;;;;;;18.10;7.10;;;;;;;;;;5033646;28;20437;-64
2021/10/17 03:35:49;;;;;;;17.05;7.10;;;;;;;;;;5026121;28;20049;-64
2021/10/17 03:38:15;;;;;;;22.92;9.05;;;;;;;;;;5038507;28;20057;-64
2021/10/17 03:40:42;;;;;;;20.55;8.98;;;;;;;;;;5026639;28;20242;-64
2021/10/17 03:43:08;;;;;;;20.52;8.00;;;;;;;;;;5027628;28;20060;-64
2021/10/17 03:45:35;;;;;;;20.08;8.10;;;;;;;;;;5026438;28;20057;-64
2021/10/17 03:48:01;;;;;;;21.63;8.35;;;;;;;;;;5041019;28;20048;-63
2021/10/17 03:50:27;;;;;;;21.88;8.57;;;;;;;;;;5017969;28;20057;-64
2021/10/17 03:52:54;;;;;;;18.85;7.35;;;;;;;;;;5044004;28;20384;-64
2021/10/17 03:55:20;;;;;;;17.88;7.57;;;;;;;;;;5022391;28;20423;-64
2021/10/17 03:57:46;;;;;;;19.92;7.07;;;;;;;;;;5036648;28;20052;-64
2021/10/17 04:00:13;;;;;;;27.48;9.18;;;;;;;;;;5030939;28;20055;-64
2021/10/17 04:02:39;;;;;;;20.80;8.23;;;;;;;;;;5041548;28;20075;-64
2021/10/17 04:05:05;;;;;;;22.25;7.68;;;;;;;;;;5026078;28;20045;-64
2021/10/17 04:07:32;;;;;;;21.02;8.07;;;;;;;;;;5028363;28;20151;-64
2021/10/17 04:09:58;;;;;;;17.90;7.63;;;;;;;;;;5027755;28;20045;-64
2021/10/17 04:12:24;;;;;;;25.52;8.43;;;;;;;;;;5032711;28;20372;-64
2021/10/17 04:14:51;;;;;;;24.17;7.85;;;;;;;;;;5035076;28;20080;-64
2021/10/17 04:17:17;;;;;;;18.85;7.70;;;;;;;;;;5032120;28;20482;-64
2021/10/17 04:19:43;;;;;;;15.25;8.02;;;;;;;;;;5033017;28;20049;-64
2021/10/17 04:22:10;;;;;;;22.92;8.00;;;;;;;;;;5039736;28;20056;-64
2021/10/17 04:24:36;;;;;;;20.35;8.57;;;;;;;;;;5026272;28;20056;-64
2021/10/17 04:27:07;;;;;;;21.98;8.40;;;;;;;;;;5036637;28;20342;-64
2021/10/17 04:29:37;;;;;;;23.75;8.77;;;;;;;;;;5027815;28;20076;-64
2021/10/17 04:32:04;;;;;;;18.77;7.72;;;;;;;;;;5039697;28;20057;-62
2021/10/17 04:34:30;;;;;;;19.02;8.00;;;;;;;;;;5020999;28;20137;-64
2021/10/17 04:36:56;;;;;;;25.25;8.57;;;;;;;;;;5033955;28;20462;-64
2021/10/17 04:39:23;;;;;;;20.63;7.68;;;;;;;;;;5030457;28;20060;-65
2021/10/17 04:41:49;;;;;;;25.10;8.10;;;;;;;;;;5032857;28;20037;-64
2021/10/17 04:44:15;;;;;;;23.00;8.88;;;;;;;;;;5038567;28;20045;-64
2021/10/17 04:46:42;;;;;;;24.98;8.00;;;;;;;;;;5032869;28;20049;-65
2021/10/17 04:49:08;;;;;;;21.27;8.20;;;;;;;;;;5032684;28;20049;-64
2021/10/17 04:51:34;;;;;;;25.58;7.80;;;;;;;;;;5034064;28;20048;-64
2021/10/17 04:54:01;;;;;;;14.73;7.97;;;;;;;;;;5043957;28;20053;-64
2021/10/17 04:56:27;;;;;;;21.45;8.57;;;;;;;;;;5040790;28;20517;-64
2021/10/17 04:58:53;;;;;;;25.27;8.40;;;;;;;;;;5024443;28;20053;-64
2021/10/17 05:01:20;;;;;;;23.88;9.07;;;;;;;;;;5037970;28;20053;-64
2021/10/17 05:03:46;;;;;;;21.17;8.07;;;;;;;;;;5027172;28;20053;-64
2021/10/17 05:06:13;;;;;;;20.23;8.90;;;;;;;;;;5029485;28;20165;-64
2021/10/17 05:08:39;;;;;;;30.88;9.50;;;;;;;;;;5022944;28;20557;-64
2021/10/17 05:11:05;;;;;;;20.50;8.43;;;;;;;;;;5016064;28;20168;-64
2021/10/17 05:13:32;;;;;;;24.98;8.45;;;;;;;;;;5034219;28;20505;-65
2021/10/17 05:15:58;;;;;;;18.25;7.97;;;;;;;;;;5038358;28;20064;-64
2021/10/17 05:18:24;;;;;;;23.80;8.60;;;;;;;;;;5037650;28;20490;-64
2021/10/17 05:20:51;;;;;;;24.92;9.02;;;;;;;;;;5038167;28;20581;-64
2021/10/17 05:23:18;;;;;;;21.73;8.98;;;;;;;;;;5034424;28;20048;-64
2021/10/17 05:25:44;;;;;;;23.65;8.93;;;;;;;;;;5036334;28;20041;-64
2021/10/17 05:28:11;;;;;;;25.63;8.77;;;;;;;;;;5038653;28;20056;-64
2021/10/17 05:30:37;;;;;;;26.45;9.07;;;;;;;;;;5040142;28;20041;-64
2021/10/17 05:33:03;;;;;;;20.00;8.25;;;;;;;;;;5020242;28;20168;-64
2021/10/17 05:35:29;;;;;;;24.27;8.75;;;;;;;;;;5044770;28;20055;-64
2021/10/17 05:37:56;;;;;;;21.30;8.75;;;;;;;;;;5016152;28;20049;-64
2021/10/17 05:40:22;;;;;;;24.83;9.02;;;;;;;;;;5033420;28;20045;-64
2021/10/17 05:42:48;;;;;;;16.27;7.78;;;;;;;;;;5032800;28;20461;-64
2021/10/17 05:45:15;;;;;;;21.13;8.73;;;;;;;;;;5025782;28;20045;-63
2021/10/17 05:47:41;;;;;;;21.35;8.82;;;;;;;;;;5035866;28;20041;-63
2021/10/17 05:50:08;;;;;;;20.88;8.73;;;;;;;;;;5029903;28;20471;-64
2021/10/17 05:52:34;;;;;;;23.40;8.40;;;;;;;;;;5037111;28;20085;-64
2021/10/17 05:55:01;;;;;;;24.75;8.20;;;;;;;;;;5025831;28;20058;-64
2021/10/17 05:57:27;;;;;;;18.60;8.45;;;;;;;;;;5039090;28;20049;-64
2021/10/17 05:59:53;;;;;;;22.58;8.32;;;;;;;;;;5023885;28;20088;-64
2021/10/17 06:02:20;;;;;;;14.95;7.72;;;;;;;;;;5030970;28;20048;-64
2021/10/17 06:04:46;;;;;;;20.52;8.40;;;;;;;;;;5036194;28;20053;-64
2021/10/17 06:07:13;;;;;;;16.35;8.20;;;;;;;;;;5033853;28;20049;-64
2021/10/17 06:09:40;;;;;;;17.75;8.95;;;;;;;;;;5031819;28;20063;-64
2021/10/17 06:12:07;;;;;;;19.48;8.00;;;;;;;;;;5032752;28;20048;-64
2021/10/17 06:14:33;;;;;;;24.67;8.35;;;;;;;;;;5027783;28;20072;-64
2021/10/17 06:17:00;;;;;;;15.02;7.63;;;;;;;;;;5019534;28;20516;-64
2021/10/17 06:19:26;;;;;;;21.10;9.05;;;;;;;;;;5012025;28;20054;-64
2021/10/17 06:21:53;;;;;;;20.13;8.82;;;;;;;;;;5039193;28;20500;-64
2021/10/17 06:24:19;;;;;;;25.63;9.48;;;;;;;;;;5025459;28;20054;-64
2021/10/17 06:26:45;;;;;;;25.77;10.18;;;;;;;;;;5039896;28;20051;-64
2021/10/17 06:29:12;;;;;;;17.08;8.52;;;;;;;;;;5018615;28;20053;-64
2021/10/17 06:31:39;;;;;;;18.17;9.32;;;;;;;;;;5040109;28;20063;-64
2021/10/17 06:34:05;;;;;;;19.55;8.77;;;;;;;;;;5035105;28;20060;-64
2021/10/17 06:36:32;;;;;;;22.73;9.07;;;;;;;;;;5038366;28;20052;-64
2021/10/17 06:38:58;;;;;;;21.08;9.23;;;;;;;;;;5028675;28;20049;-64
2021/10/17 06:41:24;;;;;;;21.42;9.32;;;;;;;;;;5028213;28;20060;-65
2021/10/17 06:43:51;;;;;;;21.88;8.38;;;;;;;;;;5026657;28;20056;-64
2021/10/17 06:46:17;;;;;;;22.42;9.32;;;;;;;;;;5039295;28;20071;-64
2021/10/17 06:48:44;;;;;;;26.25;9.13;;;;;;;;;;5035557;28;20589;-64
2021/10/17 06:51:10;;;;;;;19.75;8.80;;;;;;;;;;5044622;28;20045;-64
2021/10/17 06:53:36;;;;;;;27.42;9.20;;;;;;;;;;5028569;28;20048;-65
2021/10/17 06:56:03;;;;;;;28.08;9.65;;;;;;;;;;5038274;28;20053;-64
2021/10/17 06:58:30;;;;;;;19.25;8.95;;;;;;;;;;5028373;28;20056;-64
2021/10/17 07:00:56;;;;;;;21.50;9.77;;;;;;;;;;5041128;28;20053;-64
2021/10/17 07:03:23;;;;;;;23.05;9.52;;;;;;;;;;5023120;28;20048;-64
2021/10/17 07:05:49;;;;;;;22.33;9.32;;;;;;;;;;5036299;28;20132;-64
2021/10/17 07:08:15;;;;;;;22.45;9.00;;;;;;;;;;5025061;28;20063;-64
2021/10/17 07:10:42;;;;;;;25.77;8.82;;;;;;;;;;5022318;28;20419;-64
2021/10/17 07:13:08;;;;;;;19.58;8.48;;;;;;;;;;5025704;28;20053;-64
2021/10/17 07:15:34;;;;;;;19.38;8.35;;;;;;;;;;5033757;28;20172;-64
2021/10/17 07:18:01;;;;;;;21.73;8.95;;;;;;;;;;5028656;28;20615;-64
2021/10/17 07:20:30;;;;;;;17.52;8.38;;;;;;;;;;5031937;28;20060;-64
2021/10/17 07:22:56;;;;;;;22.92;9.18;;;;;;;;;;5022712;28;20060;-65
2021/10/17 07:25:23;;;;;;;26.45;10.07;;;;;;;;;;5034082;28;20470;-65
2021/10/17 07:27:52;;;;;;;19.58;9.27;;;;;;;;;;5020265;28;20056;-65
2021/10/17 07:30:20;;;;;;;25.35;8.75;;;;;;;;;;5038675;28;20045;-65
2021/10/17 07:32:46;;;;;;;22.45;9.07;;;;;;;;;;5021800;28;20049;-65
2021/10/17 07:35:12;;;;;;;26.33;9.50;;;;;;;;;;5044291;28;20086;-65
2021/10/17 07:37:39;;;;;;;23.15;10.07;;;;;;;;;;5023793;28;20049;-65
2021/10/17 07:40:06;;;;;;;23.00;9.63;;;;;;;;;;5035437;28;20421;-65
2021/10/17 07:42:32;;;;;;;27.15;9.65;;;;;;;;;;5028974;28;20413;-65
2021/10/17 07:44:59;;;;;;;20.70;8.57;;;;;;;;;;5007905;28;20410;-65
2021/10/17 07:47:25;;;;;;;27.45;9.88;;;;;;;;;;5027206;28;20049;-65
2021/10/17 07:49:52;;;;;;;24.98;9.65;;;;;;;;;;5033458;28;20053;-66
2021/10/17 07:52:18;;;;;;;24.98;9.75;;;;;;;;;;5032142;28;20889;-65
2021/10/17 07:54:45;;;;;;;20.40;9.45;;;;;;;;;;5030620;28;20052;-65
2021/10/17 07:57:11;;;;;;;23.80;9.90;;;;;;;;;;5028511;28;20049;-65
2021/10/17 07:59:38;;;;;;;22.75;9.00;;;;;;;;;;5042146;28;20049;-63
2021/10/17 08:02:04;;;;;;;19.63;9.18;;;;;;;;;;5017372;28;20410;-65
2021/10/17 08:04:30;;;;;;;26.75;10.10;;;;;;;;;;5035756;28;20737;-65
2021/10/17 08:06:57;;;;;;;26.63;9.90;;;;;;;;;;5013823;28;20048;-64
2021/10/17 08:09:23;;;;;;;29.75;11.00;;;;;;;;;;5035357;28;20049;-65
2021/10/17 08:11:49;;;;;;;17.90;8.55;;;;;;;;;;5026738;28;20045;-65
2021/10/17 08:14:16;;;;;;;24.25;9.80;;;;;;;;;;5041549;28;20041;-64
2021/10/17 08:16:42;;;;;;;22.85;9.70;;;;;;;;;;5030355;28;20048;-65
2021/10/17 08:19:08;;;;;;;17.73;7.57;;;;;;;;;;5028962;28;20140;-65
2021/10/17 08:21:35;;;;;;;21.60;10.10;;;;;;;;;;5037816;28;20072;-65
2021/10/17 08:24:01;;;;;;;22.55;8.18;;;;;;;;;;5035356;28;20053;-65
2021/10/17 08:26:28;;;;;;;18.00;8.73;;;;;;;;;;5036676;28;20396;-65
2021/10/17 08:28:55;;;;;;;17.90;9.93;;;;;;;;;;5031854;28;20064;-65
2021/10/17 08:31:21;;;;;;;19.85;8.73;;;;;;;;;;5029748;28;20064;-65
2021/10/17 08:33:48;;;;;;;20.20;9.48;;;;;;;;;;5034733;28;20096;-65
2021/10/17 08:36:14;;;;;;;20.40;9.50;;;;;;;;;;5025195;28;20064;-65
2021/10/17 08:39:00;;;;;;;29.98;10.05;;;;;;;;;;5038577;28;20057;-66
2021/10/17 08:41:27;;;;;;;25.27;9.05;;;;;;;;;;5030823;28;20065;-65
2021/10/17 08:43:53;;;;;;;23.08;8.15;;;;;;;;;;5044030;28;20072;-65
2021/10/17 08:46:20;;;;;;;20.55;9.48;;;;;;;;;;5032560;28;20045;-65
2021/10/17 08:48:55;;;;;;;21.60;9.60;;;;;;;;;;5040034;28;20052;-65
2021/10/17 08:51:25;;;;;;;25.95;8.98;;;;;;;;;;5042051;28;20061;-65
2021/10/17 08:53:52;;;;;;;22.95;8.63;;;;;;;;;;5038437;28;20056;-65
2021/10/17 08:56:19;;;;;;;23.95;9.48;;;;;;;;;;5040367;28;20056;-65
2021/10/17 08:58:45;;;;;;;14.48;7.55;;;;;;;;;;5031162;28;20053;-65
2021/10/17 09:01:13;;;;;;;22.88;8.45;;;;;;;;;;5039687;28;20063;-65
2021/10/17 09:03:40;;;;;;;23.63;9.02;;;;;;;;;;5026409;28;20050;-66
2021/10/17 09:06:13;;;;;;;21.55;9.45;;;;;;;;;;5033555;28;20044;-65
2021/10/17 09:08:43;;;;;;;21.75;10.50;;;;;;;;;;5024990;28;20045;-65
2021/10/17 09:11:10;;;;;;;23.45;9.40;;;;;;;;;;5037929;28;20491;-65
2021/10/17 09:13:36;;;;;;;21.27;8.25;;;;;;;;;;5027226;28;20045;-65
2021/10/17 09:16:21;;;;;;;19.40;8.88;;;;;;;;;;5033757;28;20086;-65
2021/10/17 09:19:03;;;;;;;19.75;8.27;;;;;;;;;;5032210;28;20460;-66
2021/10/17 09:21:30;;;;;;;16.48;8.85;;;;;;;;;;5033666;28;20049;-65
2021/10/17 09:23:56;;;;;;;18.70;8.77;;;;;;;;;;5034737;28;20642;-65
2021/10/17 09:26:22;;;;;;;16.10;9.02;;;;;;;;;;5034535;28;20052;-66
2021/10/17 09:28:50;;;;;;;25.88;9.63;;;;;;;;;;5034683;28;20055;-64
2021/10/17 09:31:18;;;;;;;22.27;9.32;;;;;;;;;;5044159;28;20068;-65
2021/10/17 09:34:03;;;;;;;26.13;8.85;;;;;;;;;;5025889;28;20048;-66
2021/10/17 09:36:30;;;;;;;23.85;9.38;;;;;;;;;;5042591;28;20052;-66
2021/10/17 09:39:08;;;;;;;27.90;9.87;;;;;;;;;;5018503;28;20061;-66
2021/10/17 09:41:46;;;;;;;22.42;10.23;;;;;;;;;;5037352;28;20655;-66
2021/10/17 09:44:12;;;;;;;18.35;8.95;;;;;;;;;;5015911;28;20524;-66
2021/10/17 09:46:53;;;;;;;18.23;8.50;;;;;;;;;;5039459;28;20111;-66
2021/10/17 09:49:19;;;;;;;21.05;8.63;;;;;;;;;;5040915;28;20060;-66
2021/10/17 09:51:45;;;;;;;21.58;8.77;;;;;;;;;;5034749;28;20053;-66
2021/10/17 09:54:12;;;;;;;16.77;8.30;;;;;;;;;;5032673;28;20049;-65
2021/10/17 09:56:43;;;;;;;20.90;8.00;;;;;;;;;;5031451;28;20056;-66
2021/10/17 09:59:10;;;;;;;22.05;8.38;;;;;;;;;;5038047;28;20173;-66
2021/10/17 10:01:37;;;;;;;19.35;7.78;;;;;;;;;;5035384;28;20044;-65
2021/10/17 10:04:05;;;;;;;25.30;7.60;;;;;;;;;;5042592;28;20079;-65
2021/10/17 10:06:32;;;;;;;18.98;7.93;;;;;;;;;;5033747;28;20040;-65
2021/10/17 10:09:01;;;;;;;18.27;8.43;;;;;;;;;;5039423;28;20399;-66
2021/10/17 10:11:28;;;;;;;21.60;8.25;;;;;;;;;;5034780;28;20084;-66
2021/10/17 10:13:55;;;;;;;20.60;8.18;;;;;;;;;;5038811;28;20052;-66
2021/10/17 10:16:23;;;;;;;18.83;9.20;;;;;;;;;;5041771;28;20083;-66
2021/10/17 10:18:51;;;;;;;22.40;8.57;;;;;;;;;;5036901;28;20126;-65
2021/10/17 10:21:17;;;;;;;20.77;9.35;;;;;;;;;;5027439;28;20057;-66
2021/10/17 10:23:44;;;;;;;24.55;9.77;;;;;;;;;;5029076;28;20068;-66
2021/10/17 10:26:10;;;;;;;21.52;8.52;;;;;;;;;;5038623;28;20051;-65
2021/10/17 10:28:38;;;;;;;15.80;8.10;;;;;;;;;;5043215;28;20360;-66
2021/10/17 10:31:05;;;;;;;19.25;8.50;;;;;;;;;;5028456;28;20132;-65
2021/10/17 10:33:40;;;;;;;20.25;9.05;;;;;;;;;;5039225;28;20048;-66
2021/10/17 10:36:13;;;;;;;23.70;9.68;;;;;;;;;;5013844;28;20249;-65
2021/10/17 10:38:52;;;;;;;20.10;8.98;;;;;;;;;;5044830;28;20064;-66
2021/10/17 10:41:19;;;;;;;23.23;9.35;;;;;;;;;;5025057;28;20763;-65
2021/10/17 10:43:46;;;;;;;21.90;10.20;;;;;;;;;;5043808;28;20405;-65
2021/10/17 10:46:25;;;;;;;21.58;10.95;;;;;;;;;;5029340;28;20045;-65
2021/10/17 10:48:52;;;;;;;23.52;10.10;;;;;;;;;;5035969;28;20060;-65
2021/10/17 10:51:40;;;;;;;26.25;10.18;;;;;;;;;;5023031;28;20060;-65
2021/10/17 10:54:27;;;;;;;20.25;10.07;;;;;;;;;;5028104;28;20422;-65
2021/10/17 10:56:55;;;;;;;20.65;9.13;;;;;;;;;;5026569;28;20075;-66
2021/10/17 10:59:23;;;;;;;;;;;;;;;;;;5027254;28;20049;-66
2021/10/17 11:01:50;;;;;;;21.92;8.80;;;;;;;;;;5042596;28;19925;-65
2021/10/17 11:04:35;;;;;;;27.02;9.77;;;;;;;;;;5022929;28;20770;-66
2021/10/17 11:07:20;;;;;;;19.92;9.98;;;;;;;;;;5044526;28;20049;-66
2021/10/17 11:09:50;;;;;;;19.83;9.95;;;;;;;;;;5025288;28;20567;-66
2021/10/17 11:12:35;;;;;;;18.05;9.40;;;;;;;;;;5043818;28;20053;-66
2021/10/17 11:15:02;;;;;;;21.05;10.48;;;;;;;;;;5030837;28;20056;-66
2021/10/17 11:17:28;;;;;;;23.30;11.07;;;;;;;;;;5039823;28;20433;-66
2021/10/17 11:19:55;;;;;;;24.23;9.75;;;;;;;;;;5017918;28;20072;-66
2021/10/17 11:22:22;;;;;;;22.50;9.85;;;;;;;;;;5035425;28;20048;-66
2021/10/17 11:24:50;;;;;;;16.25;8.57;;;;;;;;;;5035163;28;20389;-66
2021/10/17 11:27:17;;;;;;;24.45;9.93;;;;;;;;;;5032287;28;20040;-66
2021/10/17 11:29:43;;;;;;;21.60;9.13;;;;;;;;;;5025750;28;20046;-66
2021/10/17 11:32:16;;;;;;;19.90;8.95;;;;;;;;;;5026538;28;20559;-66
2021/10/17 11:34:58;;;;;;;20.83;8.68;;;;;;;;;;5037303;28;20052;-66
2021/10/17 11:37:26;;;;;;;20.75;9.45;;;;;;;;;;5041573;28;20049;-66
2021/10/17 11:39:52;;;;;;;23.25;9.63;;;;;;;;;;5035674;28;20058;-65
2021/10/17 11:42:18;;;;;;;19.70;9.48;;;;;;;;;;5043023;28;20048;-66
2021/10/17 11:44:45;;;;;;;18.08;7.53;;;;;;;;;;5022220;28;20049;-66
2021/10/17 11:47:11;;;;;;;20.88;8.68;;;;;;;;;;5037456;28;20483;-66
2021/10/17 11:49:37;;;;;;;24.65;8.57;;;;;;;;;;5030365;28;20115;-66
2021/10/17 11:52:04;;;;;;;18.77;8.27;;;;;;;;;;5040310;28;20509;-65
2021/10/17 11:54:40;;;;;;;17.50;8.32;;;;;;;;;;5037386;28;20049;-65
2021/10/17 11:57:07;;;;;;;16.02;7.80;;;;;;;;;;5035450;28;20049;-66
2021/10/17 11:59:33;;;;;;;18.33;7.85;;;;;;;;;;5033460;28;20049;-65
2021/10/17 12:01:59;;;;;;;14.48;6.55;;;;;;;;;;5033651;28;20050;-65
2021/10/17 12:04:41;;;;;;;15.98;7.50;;;;;;;;;;5038028;28;20049;-66
2021/10/17 12:07:08;;;;;;;15.00;6.93;;;;;;;;;;5033459;28;20055;-66
2021/10/17 12:09:34;;;;;;;12.98;6.35;;;;;;;;;;5039791;28;20057;-65
2021/10/17 12:12:00;;;;;;;13.90;6.80;;;;;;;;;;5034066;28;20494;-65
2021/10/17 12:14:27;;;;;;;11.38;6.15;;;;;;;;;;5033472;28;20045;-65
2021/10/17 12:16:54;;;;;;;17.55;7.38;;;;;;;;;;5037945;28;20053;-65
2021/10/17 12:19:25;;;;;;;14.23;6.80;;;;;;;;;;5028641;28;20044;-65
2021/10/17 12:21:51;;;;;;;11.15;6.28;;;;;;;;;;5032506;28;20497;-66
2021/10/17 12:24:19;;;;;;;13.32;6.65;;;;;;;;;;5028697;28;20570;-66
2021/10/17 12:26:49;;;;;;;12.70;6.03;;;;;;;;;;5032672;28;20764;-65
2021/10/17 12:29:17;;;;;;;16.08;6.40;;;;;;;;;;5032326;28;20057;-66
2021/10/17 12:31:45;;;;;;;16.67;6.43;;;;;;;;;;5034452;28;20085;-66
2021/10/17 12:34:12;;;;;;;14.00;6.00;;;;;;;;;;5037006;28;20042;-66
2021/10/17 12:36:40;;;;;;;16.02;6.40;;;;;;;;;;5031583;28;20064;-66
2021/10/17 12:39:11;;;;;;;16.80;7.45;;;;;;;;;;5032790;28;20049;-65
2021/10/17 12:41:37;;;;;;;16.77;6.22;;;;;;;;;;5017618;28;20046;-65
2021/10/17 12:44:05;;;;;;;15.70;6.90;;;;;;;;;;5035770;28;20418;-66
2021/10/17 12:46:31;;;;;;;19.40;7.30;;;;;;;;;;5025192;28;20045;-65
2021/10/17 12:49:06;;;;;;;16.23;7.25;;;;;;;;;;5022798;28;20504;-66
2021/10/17 12:51:34;;;;;;;13.77;6.22;;;;;;;;;;5038824;28;20402;-67
2021/10/17 12:54:14;;;;;;;13.77;6.85;;;;;;;;;;5025178;28;20048;-64
2021/10/17 12:56:49;;;;;;;13.95;6.20;;;;;;;;;;5031781;28;20049;-63
2021/10/17 12:59:18;;;;;;;14.02;6.43;;;;;;;;;;5035327;28;20048;-64
2021/10/17 13:02:02;;;;;;;15.48;7.03;;;;;;;;;;5041942;28;20395;-64
2021/10/17 13:04:40;;;;;;;17.42;7.07;;;;;;;;;;5033552;28;20143;-64
2021/10/17 13:07:06;;;;;;;13.13;6.88;;;;;;;;;;5025440;28;20493;-65
2021/10/17 13:09:43;;;;;;;11.23;6.53;;;;;;;;;;5029868;28;20513;-65
2021/10/17 13:12:36;;;;;;;15.30;7.32;;;;;;;;;;5036457;28;20092;-65
2021/10/17 13:15:06;;;;;;;12.63;6.13;;;;;;;;;;5032579;28;20041;-65
2021/10/17 13:17:33;;;;;;;13.27;7.15;;;;;;;;;;5031299;28;20045;-65
2021/10/17 13:19:59;;;;;;;14.98;6.95;;;;;;;;;;5025650;28;20152;-64
2021/10/17 13:22:26;;;;;;;14.13;7.05;;;;;;;;;;5022514;28;20045;-66
2021/10/17 13:24:53;;;;;;;18.73;7.45;;;;;;;;;;5044110;28;20059;-65
2021/10/17 13:27:19;;;;;;;14.98;7.25;;;;;;;;;;5036540;28;20049;-65
2021/10/17 13:29:45;;;;;;;14.13;7.22;;;;;;;;;;5043155;28;20770;-65
2021/10/17 13:32:12;;;;;;;17.35;7.43;;;;;;;;;;5031282;28;20045;-67
2021/10/17 13:34:39;;;;;;;15.05;6.80;;;;;;;;;;5042624;28;20057;-65
2021/10/17 13:37:05;;;;;;;18.08;7.53;;;;;;;;;;5038954;28;20049;-66
2021/10/17 13:39:31;;;;;;;16.92;7.45;;;;;;;;;;5039244;28;20045;-65
2021/10/17 13:41:58;;;;;;;16.08;6.65;;;;;;;;;;5038113;28;20053;-65
2021/10/17 13:44:25;;;;;;;14.55;7.85;;;;;;;;;;5036838;28;20062;-65
2021/10/17 13:46:52;;;;;;;16.00;6.75;;;;;;;;;;5030858;28;20061;-65
2021/10/17 13:49:19;;;;;;;15.55;6.80;;;;;;;;;;5033541;28;20056;-65
2021/10/17 13:51:45;;;;;;;15.77;7.18;;;;;;;;;;5032255;28;20065;-65
2021/10/17 13:54:12;;;;;;;20.30;6.72;;;;;;;;;;5047231;28;20045;-65
2021/10/17 13:56:58;;;;;;;17.98;6.78;;;;;;;;;;5024703;28;20056;-65
2021/10/17 13:59:25;;;;;;;14.35;6.35;;;;;;;;;;5046147;28;20512;-65
2021/10/17 14:01:52;;;;;;;14.57;6.53;;;;;;;;;;5026627;28;20048;-65
2021/10/17 14:04:19;;;;;;;19.20;6.97;;;;;;;;;;5039163;28;20149;-65
2021/10/17 14:06:45;;;;;;;16.55;6.47;;;;;;;;;;5022741;28;20069;-65
2021/10/17 14:09:12;;;;;;;16.10;6.45;;;;;;;;;;5044902;28;20830;-64
2021/10/17 14:11:38;;;;;;;14.77;6.28;;;;;;;;;;5035376;28;20482;-64
2021/10/17 14:14:05;;;;;;;14.63;6.85;;;;;;;;;;5035398;28;20045;-65
2021/10/17 14:16:31;;;;;;;16.42;7.05;;;;;;;;;;5023464;28;20056;-64
2021/10/17 14:18:57;;;;;;;13.30;6.75;;;;;;;;;;5032155;28;21160;-64
2021/10/17 14:21:24;;;;;;;14.60;6.57;;;;;;;;;;5029113;28;20056;-64
2021/10/17 14:23:50;;;;;;;16.27;6.53;;;;;;;;;;5039310;28;21155;-65
2021/10/17 14:26:16;;;;;;;15.30;6.40;;;;;;;;;;5043379;28;20041;-64
2021/10/17 14:28:43;;;;;;;13.30;6.90;;;;;;;;;;5044296;28;20045;-65
2021/10/17 14:31:09;;;;;;;16.95;6.68;;;;;;;;;;5030810;28;20057;-64